Grand Bank, Canada
Current Conditions -  °F | °C
As of 1:00 PM on Thursday 29 Jan 2015 (Local Time) from LFVP Reporting Station
Broken Clouds Broken Clouds  
Wind Chill: 22°   Ceiling: 1600
Heat Index: 34°   Visibility: 6mi
Dew Point: 28°   Wind: 20mph
Humidity: 81%   Direction: 290°WNW
Pressure: 30.03"   Gusts: NA
Location:  47.1°N, 55.78°W
Report Text: LFVP 291600Z 29017KT 260V320 9999 BKN016 01/M02 Q1017 NOSIG
Loading
Personal Weather Stations






























Interactive Weather Map New forecast layout! Learn more

10-Day Weather Forecast

Advertisements
Track Severe Weather on mobile